createdAt,value
2016-04-05T00:00:55.921Z,11.57
2016-04-05T00:01:55.907Z,11.57
2016-04-05T00:02:55.941Z,11.57
2016-04-05T00:03:55.944Z,11.55
2016-04-05T00:04:55.978Z,11.59
2016-04-05T00:05:55.980Z,11.51
2016-04-05T00:06:56.016Z,11.52
2016-04-05T00:07:56.033Z,11.55
2016-04-05T00:08:56.068Z,11.55
2016-04-05T00:09:56.054Z,11.5
2016-04-05T00:10:55.932Z,11.54
2016-04-05T00:11:56.122Z,11.59
2016-04-05T00:12:56.124Z,11.62
2016-04-05T00:13:56.143Z,11.7
2016-04-05T00:14:56.145Z,11.59
2016-04-05T00:15:56.195Z,11.69
2016-04-05T00:16:56.214Z,11.62
2016-04-05T00:17:56.216Z,11.65
2016-04-05T00:18:56.251Z,11.62
2016-04-05T00:20:00.597Z,11.7
2016-04-05T00:20:56.287Z,11.72
2016-04-05T00:21:56.290Z,11.8
2016-04-05T00:22:56.339Z,11.72
2016-04-05T00:23:56.342Z,11.72
2016-04-05T00:24:56.203Z,11.77
2016-04-05T00:25:56.378Z,11.78
2016-04-05T00:26:56.412Z,11.75
2016-04-05T00:27:56.259Z,11.84
2016-04-05T00:28:56.434Z,11.81
2016-04-05T00:29:56.467Z,11.9
2016-04-05T00:30:56.486Z,11.84
2016-04-05T00:31:56.505Z,11.87
2016-04-05T00:32:56.523Z,11.87
2016-04-05T00:33:56.525Z,11.88
2016-04-05T00:34:56.575Z,11.86
2016-04-05T00:35:56.577Z,11.87
2016-04-05T00:36:56.611Z,11.97
2016-04-05T00:37:56.613Z,11.88
2016-04-05T00:38:56.663Z,11.84
2016-04-05T00:39:56.666Z,11.88
2016-04-05T00:40:56.513Z,11.97
2016-04-05T00:41:56.735Z,11.91
2016-04-05T00:42:56.737Z,11.97
2016-04-05T00:43:56.740Z,12
2016-04-05T00:44:56.773Z,11.99
2016-04-05T00:45:56.760Z,11.91
2016-04-05T00:46:56.795Z,12
2016-04-05T00:47:56.797Z,12.03
2016-04-05T00:48:56.846Z,12.04
2016-04-05T00:49:56.864Z,12.04
2016-04-05T00:50:56.883Z,12.1
2016-04-05T00:51:56.886Z,12.1
2016-04-05T00:52:56.903Z,12.04
2016-04-05T00:53:56.939Z,12.09
2016-04-05T00:54:56.941Z,12.06
2016-04-05T00:55:56.959Z,12.09
2016-04-05T00:56:57.009Z,12.04
2016-04-05T00:57:56.995Z,12.17
2016-04-05T00:58:57.030Z,12.2
2016-04-05T00:59:57.047Z,12.04
2016-04-05T01:00:57.066Z,12.09
2016-04-05T01:01:57.085Z,12.07
2016-04-05T01:02:57.103Z,12.04
2016-04-05T01:03:57.137Z,12.17
2016-04-05T01:04:57.172Z,12.13
2016-04-05T01:05:57.189Z,12.21
2016-04-05T01:06:57.224Z,12.1
2016-04-05T01:07:57.194Z,12.03
2016-04-05T01:08:57.213Z,12.1
2016-04-05T01:09:57.232Z,12.03
2016-04-05T01:10:57.265Z,12.02
2016-04-05T01:11:57.283Z,12.12
2016-04-05T01:12:57.285Z,12.1
2016-04-05T01:13:57.320Z,12.04
2016-04-05T01:14:57.338Z,12.07
2016-04-05T01:15:57.356Z,12.13
2016-04-05T01:16:57.375Z,12.1
2016-04-05T01:17:57.393Z,12.09
2016-04-05T01:18:57.412Z,12.1
2016-04-05T01:19:57.430Z,11.97
2016-04-05T01:20:57.464Z,11.99
2016-04-05T01:21:57.467Z,11.95
2016-04-05T01:22:57.484Z,12.04
2016-04-05T01:23:57.503Z,11.97
2016-04-05T01:24:57.537Z,11.91
2016-04-05T01:25:57.555Z,11.97
2016-04-05T01:26:57.573Z,11.91
2016-04-05T01:27:57.592Z,11.94
2016-04-05T01:28:57.594Z,11.94
2016-04-05T01:29:57.628Z,11.88
2016-04-05T01:30:57.647Z,11.87
2016-04-05T01:31:57.666Z,11.86
2016-04-05T01:32:57.669Z,11.9
2016-04-05T01:33:57.702Z,11.83
2016-04-05T01:34:57.720Z,11.87
2016-04-05T01:35:57.722Z,11.83
2016-04-05T01:36:57.772Z,11.86
2016-04-05T01:37:57.775Z,11.88
2016-04-05T01:38:57.793Z,11.95
2016-04-05T01:39:57.813Z,11.81
2016-04-05T01:40:57.830Z,11.86
2016-04-05T01:41:57.864Z,11.88
2016-04-05T01:42:57.883Z,11.84
2016-04-05T01:43:57.885Z,11.9
2016-04-05T01:44:57.904Z,11.84
2016-04-05T01:45:57.958Z,11.83
2016-04-05T01:46:57.952Z,11.81
2016-04-05T01:47:59.829Z,11.83
2016-04-05T01:48:59.316Z,11.87
2016-04-05T01:49:58.013Z,11.83
2016-04-05T01:50:58.047Z,11.9
2016-04-05T01:51:58.050Z,11.86
2016-04-05T01:52:58.068Z,11.87
2016-04-05T01:53:58.086Z,11.8
2016-04-05T01:54:58.105Z,11.83
2016-04-05T01:55:58.123Z,11.86
2016-04-05T01:56:58.142Z,11.86
2016-04-05T01:57:58.144Z,11.9
2016-04-05T01:58:58.194Z,11.87
2016-04-05T01:59:58.212Z,11.94
2016-04-05T02:00:58.215Z,11.84
2016-04-05T02:01:58.248Z,11.87
2016-04-05T02:02:58.251Z,11.88
2016-04-05T02:03:58.254Z,11.86
2016-04-05T02:06:58.341Z,11.87
2016-04-05T02:07:58.348Z,11.8
2016-04-05T02:08:58.367Z,11.87
2016-04-05T02:09:58.385Z,11.84
2016-04-05T02:10:58.419Z,11.83
2016-04-05T02:11:58.437Z,11.8
2016-04-05T02:12:58.440Z,11.8
2016-04-05T02:13:58.458Z,11.83
2016-04-05T02:14:58.507Z,11.83
2016-04-05T02:15:58.494Z,11.83
2016-04-05T02:16:58.543Z,11.78
2016-04-05T02:17:58.546Z,11.8
2016-04-05T02:18:58.565Z,11.78
2016-04-05T02:19:58.568Z,11.86
2016-04-05T02:20:58.602Z,11.77
2016-04-05T02:21:58.635Z,11.8
2016-04-05T02:22:58.638Z,11.77
2016-04-05T02:23:58.657Z,11.77
2016-04-05T02:24:58.675Z,11.8
2016-04-05T02:25:58.725Z,11.8
2016-04-05T02:26:58.711Z,11.84
2016-04-05T02:27:58.730Z,11.77
2016-04-05T02:28:58.764Z,11.81
2016-04-05T02:29:58.906Z,11.84
2016-04-05T02:30:58.785Z,11.73
2016-04-05T02:31:58.819Z,11.77
2016-04-05T02:32:58.837Z,11.73
2016-04-05T02:33:58.871Z,11.73
2016-04-05T02:34:58.874Z,11.7
2016-04-05T02:35:58.892Z,11.78
2016-04-05T02:36:58.926Z,11.81
2016-04-05T02:37:58.928Z,11.8
2016-04-05T02:38:58.978Z,11.77
2016-04-05T02:39:58.965Z,11.78
2016-04-05T02:40:58.999Z,11.83
2016-04-05T02:41:59.002Z,11.78
2016-04-05T02:42:59.035Z,11.86
2016-04-05T02:43:59.055Z,11.77
2016-04-05T02:44:59.134Z,11.84
2016-04-05T02:45:59.093Z,11.8
2016-04-05T02:46:59.083Z,11.8
2016-04-05T02:47:59.088Z,11.72
2016-04-05T02:48:59.094Z,11.8
2016-04-05T02:49:59.115Z,11.77
2016-04-05T02:50:59.099Z,11.8
2016-04-05T02:51:59.112Z,11.69
2016-04-05T02:52:59.204Z,11.69
2016-04-05T02:53:59.155Z,11.69
2016-04-05T02:54:59.185Z,11.63
2016-04-05T02:55:59.186Z,11.52
2016-04-05T02:56:59.219Z,11.59
2016-04-05T02:57:59.220Z,11.52
2016-04-05T02:58:59.252Z,11.55
2016-04-05T02:59:59.409Z,11.62
2016-04-05T03:00:59.286Z,11.57
2016-04-05T03:01:59.304Z,11.59
2016-04-05T03:02:59.321Z,11.57
2016-04-05T03:03:59.370Z,11.43
2016-04-05T03:04:59.388Z,11.47
2016-04-05T03:05:59.391Z,11.45
2016-04-05T03:06:59.252Z,11.45
2016-04-05T03:07:59.411Z,11.47
2016-04-05T03:08:59.446Z,11.52
2016-04-05T03:09:59.464Z,11.45
2016-04-05T03:10:59.467Z,11.48
2016-04-05T03:11:59.485Z,11.48
2016-04-05T03:12:59.519Z,11.52
2016-04-05T03:13:59.553Z,11.48
2016-04-05T03:14:59.602Z,11.52
2016-04-05T03:15:59.574Z,11.54
2016-04-05T03:16:59.577Z,11.54
2016-04-05T03:17:59.610Z,11.55
2016-04-05T03:18:59.629Z,11.54
2016-04-05T03:19:59.647Z,11.55
2016-04-05T03:20:59.665Z,11.52
2016-04-05T03:21:59.668Z,11.57
2016-04-05T03:22:59.702Z,11.63
2016-04-05T03:23:59.720Z,11.55
2016-04-05T03:24:59.582Z,11.55
2016-04-05T03:25:59.757Z,11.52
2016-04-05T03:26:59.792Z,11.55
2016-04-05T03:27:59.794Z,11.54
2016-04-05T03:28:59.828Z,11.54
2016-04-05T03:30:00.003Z,11.51
2016-04-05T03:30:59.881Z,11.44
2016-04-05T03:31:59.868Z,11.52
2016-04-05T03:32:59.886Z,11.51
2016-04-05T03:33:59.920Z,11.57
2016-04-05T03:34:59.939Z,11.55
2016-04-05T03:35:59.938Z,11.51
2016-04-05T03:36:59.988Z,11.57
2016-04-05T03:37:59.990Z,11.5
2016-04-05T03:38:59.994Z,11.51
2016-04-05T03:40:00.011Z,11.45
2016-04-05T03:41:00.030Z,11.5
2016-04-05T03:42:00.063Z,11.5
2016-04-05T03:43:00.082Z,11.57
2016-04-05T03:44:00.085Z,11.5
2016-04-05T03:45:00.416Z,11.52
2016-04-05T03:46:00.152Z,11.52
2016-04-05T03:47:00.155Z,11.5
2016-04-05T03:48:00.189Z,11.5
2016-04-05T03:49:00.192Z,11.54
2016-04-05T03:50:00.194Z,11.57
2016-04-05T03:51:00.229Z,11.52
2016-04-05T03:52:00.246Z,11.6
2016-04-05T03:53:00.265Z,11.55
2016-04-05T03:54:00.284Z,11.66
2016-04-05T03:55:00.287Z,11.59
2016-04-05T03:56:00.321Z,11.69
2016-04-05T03:57:00.338Z,11.7
2016-04-05T03:58:00.357Z,11.7
2016-04-05T03:59:00.375Z,11.73
2016-04-05T03:59:59.925Z,11.81
2016-04-05T04:01:00.411Z,11.73
2016-04-05T04:02:00.445Z,11.78
2016-04-05T04:03:00.448Z,11.75
2016-04-05T04:04:00.481Z,11.84
2016-04-05T04:05:00.484Z,11.77
2016-04-05T04:06:00.519Z,11.7
2016-04-05T04:07:00.537Z,11.77
2016-04-05T04:08:00.572Z,11.75
2016-04-05T04:09:00.574Z,11.81
2016-04-05T04:10:00.577Z,11.75
2016-04-05T04:11:00.611Z,11.77
2016-04-05T04:12:00.629Z,11.8
2016-04-05T04:13:00.647Z,11.69
2016-04-05T04:14:00.666Z,11.72
2016-04-05T04:15:00.730Z,11.73
2016-04-05T04:16:00.718Z,11.75
2016-04-05T04:17:00.721Z,11.72
2016-04-05T04:18:00.738Z,11.69
2016-04-05T04:19:00.772Z,11.66
2016-04-05T04:20:00.791Z,11.66
2016-04-05T04:21:00.793Z,11.73
2016-04-05T04:22:00.827Z,11.73
2016-04-05T04:23:00.689Z,11.75
2016-04-05T04:24:00.864Z,11.77
2016-04-05T04:25:00.882Z,11.7
2016-04-05T04:26:00.916Z,11.73
2016-04-05T04:27:00.919Z,11.77
2016-04-05T04:28:00.937Z,11.73
2016-04-05T04:29:00.956Z,11.73
2016-04-05T04:30:01.005Z,11.75
2016-04-05T04:31:00.992Z,11.8
2016-04-05T04:32:01.011Z,11.73
2016-04-05T04:33:01.029Z,11.75
2016-04-05T04:34:01.048Z,11.75
2016-04-05T04:35:01.065Z,11.83
2016-04-05T04:36:01.099Z,11.77
2016-04-05T04:37:01.134Z,11.8
2016-04-05T04:38:01.136Z,11.8
2016-04-05T04:39:01.155Z,11.8
2016-04-05T04:40:01.173Z,11.77
2016-04-05T04:41:01.191Z,11.75
2016-04-05T04:42:01.209Z,11.81
2016-04-05T04:43:01.228Z,11.8
2016-04-05T04:44:01.246Z,11.73
2016-04-05T04:45:01.280Z,11.75
2016-04-05T04:46:01.283Z,11.77
2016-04-05T04:47:01.302Z,11.73
2016-04-05T04:48:01.319Z,11.8
2016-04-05T04:49:01.338Z,11.75
2016-04-05T04:50:01.371Z,11.72
2016-04-05T04:51:01.233Z,11.77
2016-04-05T04:52:01.424Z,11.77
2016-04-05T04:53:01.410Z,11.8
2016-04-05T04:54:01.461Z,11.83
2016-04-05T04:55:01.463Z,11.8
2016-04-05T04:56:01.496Z,11.77
2016-04-05T04:57:01.485Z,11.84
2016-04-05T04:58:01.534Z,11.87
2016-04-05T04:59:01.552Z,11.75
2016-04-05T05:00:01.586Z,11.73
2016-04-05T05:01:01.573Z,11.77
2016-04-05T05:02:01.592Z,11.72
2016-04-05T05:03:01.609Z,11.8
2016-04-05T05:04:01.628Z,11.72
2016-04-05T05:05:01.662Z,11.68
2016-04-05T05:06:01.680Z,11.66
2016-04-05T05:07:01.683Z,11.66
2016-04-05T05:08:01.717Z,11.62
2016-04-05T05:09:01.736Z,11.69
2016-04-05T05:10:01.769Z,11.63
2016-04-05T05:11:01.772Z,11.7
2016-04-05T05:12:01.790Z,11.65
2016-04-05T05:13:01.824Z,11.7
2016-04-05T05:14:01.827Z,11.75
2016-04-05T05:15:01.845Z,11.57
2016-04-05T05:16:01.864Z,11.62
2016-04-05T05:17:01.897Z,11.59
2016-04-05T05:18:01.915Z,11.7
2016-04-05T05:19:01.934Z,11.7
2016-04-05T05:20:01.921Z,11.57
2016-04-05T05:21:01.954Z,11.57
2016-04-05T05:22:01.989Z,11.63
2016-04-05T05:23:02.007Z,11.55
2016-04-05T05:24:02.041Z,11.65
2016-04-05T05:25:02.029Z,11.69
2016-04-05T05:26:02.062Z,11.63
2016-04-05T05:27:02.080Z,11.68
2016-04-05T05:28:02.099Z,11.7
2016-04-05T05:29:02.133Z,11.68
2016-04-05T05:30:02.135Z,11.7
2016-04-05T05:31:02.154Z,11.6
2016-04-05T05:32:02.172Z,11.66
2016-04-05T05:33:02.206Z,11.62
2016-04-05T05:34:02.209Z,11.75
2016-04-05T05:35:02.242Z,11.68
2016-04-05T05:36:02.245Z,11.77
2016-04-05T05:37:02.279Z,11.77
2016-04-05T05:38:05.313Z,11.69
2016-04-05T05:39:02.301Z,11.83
2016-04-05T05:40:02.319Z,11.84
2016-04-05T05:41:02.352Z,11.73
2016-04-05T05:42:02.371Z,11.9
2016-04-05T05:43:02.405Z,11.75
2016-04-05T05:44:02.408Z,11.84
2016-04-05T05:45:02.426Z,11.88
2016-04-05T05:46:02.444Z,11.84
2016-04-05T05:47:02.463Z,11.86
2016-04-05T05:48:02.496Z,11.8
2016-04-05T05:49:02.499Z,11.77
2016-04-05T05:50:02.563Z,11.81
2016-04-05T05:51:02.535Z,11.75
2016-04-05T05:52:02.569Z,11.83
2016-04-05T05:53:02.572Z,11.84
2016-04-05T05:54:02.622Z,11.75
2016-04-05T05:55:02.609Z,11.78
2016-04-05T05:56:02.643Z,11.78
2016-04-05T05:57:02.661Z,11.87
2016-04-05T05:58:02.679Z,11.77
2016-04-05T05:59:02.713Z,11.8
2016-04-05T06:00:02.716Z,11.77
2016-04-05T06:01:02.735Z,11.84
2016-04-05T06:02:02.753Z,11.75
2016-04-05T06:03:02.770Z,11.77
2016-04-05T06:04:02.790Z,11.75
2016-04-05T06:05:02.807Z,11.86
2016-04-05T06:06:02.841Z,11.78
2016-04-05T06:07:02.845Z,11.83
2016-04-05T06:08:02.878Z,11.75
2016-04-05T06:09:02.881Z,11.81
2016-04-05T06:10:02.931Z,11.88
2016-04-05T06:11:02.933Z,11.83
2016-04-05T06:12:02.951Z,11.83
2016-04-05T06:13:02.954Z,11.8
2016-04-05T06:14:03.003Z,11.75
2016-04-05T06:15:03.006Z,11.75
2016-04-05T06:16:03.025Z,11.8
2016-04-05T06:17:02.293Z,11.8
2016-04-05T06:18:03.077Z,11.86
2016-04-05T06:19:03.095Z,11.77
2016-04-05T06:20:03.113Z,11.8
2016-04-05T06:21:03.147Z,11.83
2016-04-05T06:22:03.135Z,11.8
2016-04-05T06:23:03.169Z,11.81
2016-04-05T06:24:03.188Z,11.88
2016-04-05T06:25:03.205Z,11.84
2016-04-05T06:26:03.223Z,11.83
2016-04-05T06:27:03.242Z,11.83
2016-04-05T06:28:03.276Z,11.83
2016-04-05T06:29:03.293Z,11.87
2016-04-05T06:30:03.344Z,11.75
2016-04-05T06:31:03.331Z,11.84
2016-04-05T06:32:03.349Z,11.81
2016-04-05T06:33:03.367Z,11.77
2016-04-05T06:34:03.448Z,11.78
2016-04-05T06:35:03.404Z,11.75
2016-04-05T06:36:03.469Z,11.9
2016-04-05T06:37:03.425Z,11.8
2016-04-05T06:38:03.490Z,11.78
2016-04-05T06:39:03.493Z,11.78
2016-04-05T06:40:03.573Z,11.81
2016-04-05T06:41:03.514Z,11.75
2016-04-05T06:42:03.579Z,11.83
2016-04-05T06:43:03.550Z,11.75
2016-04-05T06:44:03.584Z,11.8
2016-04-05T06:45:03.619Z,11.84
2016-04-05T06:46:03.637Z,11.77
2016-04-05T06:47:03.639Z,11.91
2016-04-05T06:48:03.641Z,11.78
2016-04-05T06:49:03.676Z,11.81
2016-04-05T06:50:03.694Z,11.88
2016-04-05T06:51:03.728Z,11.86
2016-04-05T06:52:03.731Z,11.83
2016-04-05T06:53:03.749Z,11.83
2016-04-05T06:54:03.768Z,11.88
2016-04-05T06:55:03.786Z,11.88
2016-04-05T06:56:03.788Z,11.88
2016-04-05T06:57:03.822Z,11.86
2016-04-05T06:58:03.857Z,11.94
2016-04-05T06:59:03.859Z,11.97
2016-04-05T07:00:03.877Z,11.91
2016-04-05T07:01:03.912Z,12.04
2016-04-05T07:02:03.929Z,12.06
2016-04-05T07:03:03.948Z,12.04
2016-04-05T07:04:03.966Z,12.09
2016-04-05T07:05:03.968Z,12.06
2016-04-05T07:06:04.003Z,12.1
2016-04-05T07:07:04.021Z,12.09
2016-04-05T07:08:04.056Z,12.12
2016-04-05T07:09:04.075Z,12.06
2016-04-05T07:10:04.078Z,12.1
2016-04-05T07:11:04.096Z,12.13
2016-04-05T07:12:04.130Z,12.07
2016-04-05T07:13:04.149Z,12.1
2016-04-05T07:14:04.152Z,12.17
2016-04-05T07:15:04.185Z,12.21
2016-04-05T07:16:04.203Z,12.22
2016-04-05T07:17:04.222Z,12.17
2016-04-05T07:18:04.272Z,12.15
2016-04-05T07:19:04.274Z,12.17
2016-04-05T07:20:04.277Z,12.17
2016-04-05T07:21:04.296Z,12.24
2016-04-05T07:22:04.313Z,12.15
2016-04-05T07:23:04.332Z,12.07
2016-04-05T07:24:04.350Z,12.17
2016-04-05T07:25:04.368Z,12.13
2016-04-05T07:26:04.402Z,12.15
2016-04-05T07:27:03.670Z,12.22
2016-04-05T07:28:04.423Z,12.17
2016-04-05T07:29:04.457Z,12.17
2016-04-05T07:30:04.475Z,12.09
2016-04-05T07:31:04.479Z,12.24
2016-04-05T07:32:04.512Z,12.15
2016-04-05T07:33:04.545Z,12.22
2016-04-05T07:34:04.548Z,12.2
2016-04-05T07:35:04.567Z,12.18
2016-04-05T07:36:04.570Z,12.24
2016-04-05T07:37:04.603Z,12.22
2016-04-05T07:38:04.654Z,12.22
2016-04-05T07:39:04.656Z,12.24
2016-04-05T07:40:04.658Z,12.28
2016-04-05T07:41:04.692Z,12.36
2016-04-05T07:42:04.695Z,12.29
2016-04-05T07:43:04.730Z,12.31
2016-04-05T07:44:04.732Z,12.29
2016-04-05T07:45:04.766Z,12.24
2016-04-05T07:46:04.784Z,12.29
2016-04-05T07:47:04.786Z,12.29
2016-04-05T07:48:04.821Z,12.31
2016-04-05T07:49:04.839Z,12.32
2016-04-05T07:50:04.874Z,12.31
2016-04-05T07:51:04.876Z,12.28
2016-04-05T07:52:04.910Z,12.29
2016-04-05T07:53:04.913Z,12.32
2016-04-05T07:54:04.946Z,12.39
2016-04-05T07:55:04.980Z,12.4
2016-04-05T07:56:04.983Z,12.42
2016-04-05T07:57:04.985Z,12.43
2016-04-05T07:58:05.020Z,12.39
2016-04-05T07:59:05.038Z,12.4
2016-04-05T08:00:05.087Z,12.39
2016-04-05T08:01:05.074Z,12.42
2016-04-05T08:02:05.092Z,12.37
2016-04-05T08:03:05.159Z,12.42
2016-04-05T08:04:05.129Z,12.46
2016-04-05T08:05:05.148Z,12.45
2016-04-05T08:06:05.182Z,12.43
2016-04-05T08:07:05.200Z,12.4
2016-04-05T08:08:05.218Z,12.43
2016-04-05T08:09:05.237Z,12.49
2016-04-05T08:10:05.270Z,12.45
2016-04-05T08:11:05.289Z,12.55
2016-04-05T08:12:05.307Z,12.55
2016-04-05T08:13:05.311Z,12.49
2016-04-05T08:14:05.344Z,12.55
2016-04-05T08:15:05.362Z,12.57
2016-04-05T08:16:05.411Z,12.58
2016-04-05T08:17:05.414Z,12.57
2016-04-05T08:18:05.417Z,12.58
2016-04-05T08:19:05.435Z,12.6
2016-04-05T08:20:05.455Z,12.58
2016-04-05T08:21:05.472Z,12.58
2016-04-05T08:22:05.490Z,12.6
2016-04-05T08:23:05.508Z,12.73
2016-04-05T08:24:05.557Z,12.67
2016-04-05T08:25:05.546Z,12.73
2016-04-05T08:26:05.610Z,12.61
2016-04-05T08:27:05.644Z,12.73
2016-04-05T08:28:05.647Z,12.72
2016-04-05T08:29:05.681Z,12.73
2016-04-05T08:30:05.668Z,12.68
2016-04-05T08:31:05.671Z,12.76
2016-04-05T08:32:05.689Z,12.75
2016-04-05T08:33:05.707Z,12.8
2016-04-05T08:34:05.773Z,12.78
2016-04-05T08:35:05.776Z,12.86
2016-04-05T08:36:05.809Z,12.9
2016-04-05T08:37:05.796Z,12.91
2016-04-05T08:38:05.830Z,13
2016-04-05T08:39:05.833Z,12.95
2016-04-05T08:40:05.851Z,12.95
2016-04-05T08:41:05.885Z,12.97
2016-04-05T08:42:05.889Z,13.01
2016-04-05T08:43:05.906Z,13
2016-04-05T08:44:05.924Z,13.09
2016-04-05T08:45:05.958Z,13.13
2016-04-05T08:46:05.961Z,13.12
2016-04-05T08:47:05.995Z,13.13
2016-04-05T08:48:06.013Z,13.22
2016-04-05T08:49:06.033Z,13.22
2016-04-05T08:50:06.050Z,13.2
2016-04-05T08:51:06.068Z,13.23
2016-04-05T08:52:06.086Z,13.31
2016-04-05T08:53:06.120Z,13.27
2016-04-05T08:54:05.967Z,13.22
2016-04-05T08:55:06.141Z,13.22
2016-04-05T08:56:06.176Z,13.3
2016-04-05T08:57:06.194Z,13.31
2016-04-05T08:58:06.212Z,13.2
2016-04-05T08:59:06.230Z,13.31
2016-04-05T09:00:06.249Z,13.3
2016-04-05T09:01:05.517Z,13.3
2016-04-05T09:02:06.301Z,13.27
2016-04-05T09:03:06.304Z,13.38
2016-04-05T09:04:06.338Z,13.38
2016-04-05T09:05:06.356Z,13.47
2016-04-05T09:06:06.390Z,13.46
2016-04-05T09:07:06.392Z,13.59
2016-04-05T09:08:06.426Z,13.6
2016-04-05T09:09:06.429Z,13.71
2016-04-05T09:10:06.467Z,13.7
2016-04-05T09:11:06.471Z,13.71
2016-04-05T09:12:06.505Z,13.74
2016-04-05T09:13:06.523Z,13.78
2016-04-05T09:14:06.619Z,13.78
2016-04-05T09:15:06.622Z,13.77
2016-04-05T09:16:06.656Z,13.72
2016-04-05T09:17:06.658Z,13.65
2016-04-05T09:18:06.677Z,13.72
2016-04-05T09:19:06.680Z,13.81
2016-04-05T09:20:06.730Z,13.72
2016-04-05T09:21:07.185Z,13.71
2016-04-05T09:22:06.750Z,13.79
2016-04-05T09:23:06.722Z,13.77
2016-04-05T09:24:06.771Z,13.85
2016-04-05T09:25:06.774Z,13.85
2016-04-05T09:26:06.792Z,13.83
2016-04-05T09:27:06.811Z,13.86
2016-04-05T09:28:06.829Z,13.85
2016-04-05T09:29:06.863Z,13.86
2016-04-05T09:30:06.850Z,13.95
2016-04-05T09:31:07.087Z,13.96
2016-04-05T09:32:06.918Z,14.05
2016-04-05T09:33:06.936Z,13.97
2016-04-05T09:34:06.954Z,13.99
2016-04-05T09:35:06.973Z,13.89
2016-04-05T09:36:06.976Z,13.87
2016-04-05T09:37:07.010Z,13.79
2016-04-05T09:38:07.028Z,13.75
2016-04-05T09:39:07.468Z,13.75
2016-04-05T09:40:07.080Z,13.83
2016-04-05T09:41:07.098Z,13.83
2016-04-05T09:42:07.100Z,13.75
2016-04-05T09:43:07.136Z,13.74
2016-04-05T09:44:07.138Z,13.77
2016-04-05T09:45:07.171Z,13.77
2016-04-05T09:46:07.361Z,13.72
2016-04-05T09:47:07.208Z,13.78
2016-04-05T09:48:07.226Z,13.83
2016-04-05T09:49:07.260Z,13.72
2016-04-05T09:50:07.295Z,13.77
2016-04-05T09:51:07.297Z,13.83
2016-04-05T09:52:07.299Z,13.83
2016-04-05T09:53:07.334Z,13.77
2016-04-05T09:54:07.368Z,13.83
2016-04-05T09:55:07.386Z,13.78
2016-04-05T09:56:07.388Z,13.74
2016-04-05T09:57:07.454Z,13.77
2016-04-05T09:58:07.457Z,13.77
2016-04-05T09:59:07.490Z,13.81
2016-04-05T10:00:07.477Z,13.77
2016-04-05T10:01:07.620Z,13.79
2016-04-05T10:02:07.515Z,13.79
2016-04-05T10:03:07.548Z,13.83
2016-04-05T10:04:07.598Z,13.75
2016-04-05T10:05:07.600Z,13.78
2016-04-05T10:06:07.634Z,13.75
2016-04-05T10:07:07.699Z,13.77
2016-04-05T10:08:07.639Z,13.86
2016-04-05T10:09:07.658Z,13.78
2016-04-05T10:10:07.675Z,13.92
2016-04-05T10:11:07.710Z,13.79
2016-04-05T10:12:07.822Z,13.86
2016-04-05T10:13:07.809Z,13.9
2016-04-05T10:14:07.828Z,13.87
2016-04-05T10:15:07.800Z,13.86
2016-04-05T10:16:07.739Z,13.87
2016-04-05T10:17:07.820Z,13.95
2016-04-05T10:18:07.901Z,13.89
2016-04-05T10:19:07.872Z,13.87
2016-04-05T10:20:07.922Z,13.89
2016-04-05T10:21:07.908Z,13.92
2016-04-05T10:22:07.927Z,13.79
2016-04-05T10:23:07.946Z,13.77
2016-04-05T10:24:07.979Z,13.79
2016-04-05T10:25:07.983Z,13.81
2016-04-05T10:26:08.016Z,13.83
2016-04-05T10:27:08.035Z,13.79
2016-04-05T10:28:08.053Z,13.83
2016-04-05T10:29:08.071Z,13.87
2016-04-05T10:30:08.090Z,13.86
2016-04-05T10:31:08.154Z,13.87
2016-04-05T10:32:08.157Z,13.89
2016-04-05T10:33:08.160Z,13.93
2016-04-05T10:34:08.179Z,13.93
2016-04-05T10:35:08.196Z,14
2016-04-05T10:36:08.215Z,14.04
2016-04-05T10:37:08.092Z,14.1
2016-04-05T10:38:08.267Z,14.17
2016-04-05T10:39:08.317Z,14.23
2016-04-05T10:40:08.303Z,14.28
2016-04-05T10:41:08.322Z,14.32
2016-04-05T10:42:08.356Z,14.41
2016-04-05T10:43:08.389Z,14.43
2016-04-05T10:44:08.409Z,14.35
2016-04-05T10:45:08.395Z,14.54
2016-04-05T10:46:08.445Z,14.44
2016-04-05T10:47:08.447Z,14.51
2016-04-05T10:48:08.481Z,14.62
2016-04-05T10:49:08.484Z,14.73
2016-04-05T10:50:08.518Z,14.66
2016-04-05T10:51:08.536Z,14.78
2016-04-05T10:52:08.539Z,14.69
2016-04-05T10:53:08.573Z,14.85
2016-04-05T10:54:08.591Z,14.86
2016-04-05T10:55:08.624Z,15.02
2016-04-05T10:56:08.628Z,15.09
2016-04-05T10:57:08.662Z,15.24
2016-04-05T10:58:08.665Z,15.36
2016-04-05T10:59:08.699Z,15.4
2016-04-05T11:00:08.702Z,15.43
2016-04-05T11:01:08.751Z,15.57
2016-04-05T11:02:08.769Z,15.61
2016-04-05T11:03:08.787Z,15.58
2016-04-05T11:04:08.807Z,15.59
2016-04-05T11:05:08.824Z,15.62
2016-04-05T11:06:08.827Z,15.68
2016-04-05T11:07:08.877Z,15.75
2016-04-05T11:08:08.886Z,15.86
2016-04-05T11:09:08.973Z,15.94
2016-04-05T11:10:08.929Z,16.04
2016-04-05T11:11:08.948Z,16.08
2016-04-05T11:12:08.840Z,16.2
2016-04-05T11:13:08.984Z,16.21
2016-04-05T11:14:09.018Z,16.31
2016-04-05T11:15:09.037Z,16.36
2016-04-05T11:16:09.087Z,16.32
2016-04-05T11:17:09.073Z,16.35
2016-04-05T11:18:09.107Z,16.43
2016-04-05T11:19:09.110Z,16.57
2016-04-05T11:20:08.987Z,16.54
2016-04-05T11:21:09.162Z,16.5
2016-04-05T11:22:09.197Z,16.51
2016-04-05T11:23:09.215Z,16.69
2016-04-05T11:24:09.217Z,16.75
2016-04-05T11:25:09.266Z,16.86
2016-04-05T11:26:09.285Z,17.01
2016-04-05T11:27:09.319Z,17.12
2016-04-05T11:28:09.338Z,17.14
2016-04-05T11:29:09.341Z,17.09
2016-04-05T11:30:09.358Z,17.14
2016-04-05T11:31:09.408Z,17.26
2016-04-05T11:32:08.661Z,17.27
2016-04-05T11:33:09.413Z,17.27
2016-04-05T11:34:09.479Z,17.23
2016-04-05T11:35:09.482Z,17.29
2016-04-05T11:36:09.530Z,17.46
2016-04-05T11:37:09.518Z,17.45
2016-04-05T11:38:09.551Z,17.56
2016-04-05T11:39:09.570Z,17.48
2016-04-05T11:40:09.588Z,17.59
2016-04-05T11:41:09.622Z,17.67
2016-04-05T11:42:09.625Z,17.7
2016-04-05T11:43:09.689Z,17.56
2016-04-05T11:44:09.723Z,17.54
2016-04-05T11:45:09.695Z,17.49
2016-04-05T11:46:09.760Z,17.44
2016-04-05T11:47:09.764Z,17.46
2016-04-05T11:48:09.781Z,17.42
2016-04-05T11:49:09.831Z,17.33
2016-04-05T11:50:09.849Z,17.26
2016-04-05T11:51:09.865Z,17.38
2016-04-05T11:52:09.876Z,17.34
2016-04-05T11:53:09.885Z,17.39
2016-04-05T11:54:09.925Z,17.36
2016-04-05T11:55:09.904Z,17.46
2016-04-05T11:56:09.946Z,17.45
2016-04-05T11:57:09.946Z,17.52
2016-04-05T11:58:09.960Z,17.65
2016-04-05T11:59:10.006Z,17.56
2016-04-05T12:00:09.992Z,17.59
2016-04-05T12:01:10.006Z,17.59
2016-04-05T12:02:10.055Z,17.52
2016-04-05T12:03:10.073Z,17.49
2016-04-05T12:04:10.089Z,17.63
2016-04-05T12:05:10.106Z,17.57
2016-04-05T12:06:10.140Z,17.56
2016-04-05T12:07:10.142Z,17.64
2016-04-05T12:08:10.175Z,17.48
2016-04-05T12:09:10.224Z,17.52
2016-04-05T12:10:10.242Z,17.57
2016-04-05T12:11:10.229Z,17.63
2016-04-05T12:12:10.295Z,17.65
2016-04-05T12:13:10.297Z,17.49
2016-04-05T12:14:10.315Z,17.49
2016-04-05T12:15:10.334Z,17.41
2016-04-05T12:16:10.367Z,17.52
2016-04-05T12:17:10.386Z,17.45
2016-04-05T12:18:10.405Z,17.49
2016-04-05T12:19:10.439Z,17.46
2016-04-05T12:20:10.456Z,17.49
2016-04-05T12:21:10.475Z,17.44
2016-04-05T12:22:10.493Z,17.44
2016-04-05T12:23:10.511Z,17.41
2016-04-05T12:24:10.546Z,17.42
2016-04-05T12:25:10.564Z,17.42
2016-04-05T12:26:10.582Z,17.51
2016-04-05T12:27:10.616Z,17.51
2016-04-05T12:28:10.618Z,17.56
2016-04-05T12:29:10.638Z,17.56
2016-04-05T12:30:10.687Z,17.52
2016-04-05T12:31:10.690Z,17.59
2016-04-05T12:32:10.738Z,17.54
2016-04-05T12:33:10.788Z,17.54
2016-04-05T12:34:10.837Z,17.52
2016-04-05T12:35:10.825Z,17.54
2016-04-05T12:36:10.906Z,17.52
2016-04-05T12:37:10.831Z,17.57
2016-04-05T12:38:10.912Z,17.52
2016-04-05T12:39:10.883Z,17.64
2016-04-05T12:40:10.979Z,17.49
2016-04-05T12:41:10.934Z,17.52
2016-04-05T12:42:11.000Z,17.65
2016-04-05T12:43:10.987Z,17.78
2016-04-05T12:44:11.006Z,17.76
2016-04-05T12:45:11.024Z,17.74
2016-04-05T12:46:11.042Z,17.92
2016-04-05T12:47:11.060Z,17.71
2016-04-05T12:48:11.095Z,17.67
2016-04-05T12:49:11.114Z,17.64
2016-04-05T12:50:11.131Z,17.59
2016-04-05T12:51:11.165Z,17.54
2016-04-05T12:52:11.184Z,17.54
2016-04-05T12:53:11.202Z,17.46
2016-04-05T12:54:11.548Z,17.44
2016-04-05T12:55:11.254Z,17.41
2016-04-05T12:56:11.272Z,17.44
2016-04-05T12:57:11.290Z,17.45
2016-04-05T12:58:11.325Z,17.48
2016-04-05T12:59:11.358Z,17.42